sensor_id;sensor_type;location;lat;lon;timestamp;temperature;humidity
19928;DHT22;10126;50.876;4.470;2023-01-19T00:00:17;2.00;99.90
19928;DHT22;10126;50.876;4.470;2023-01-19T00:02:18;2.00;99.90
19928;DHT22;10126;50.876;4.470;2023-01-19T00:04:19;2.00;99.90
19928;DHT22;10126;50.876;4.470;2023-01-19T00:06:19;2.00;99.90
19928;DHT22;10126;50.876;4.470;2023-01-19T00:08:20;1.90;99.90
19928;DHT22;10126;50.876;4.470;2023-01-19T00:10:21;2.00;99.90
19928;DHT22;10126;50.876;4.470;2023-01-19T00:12:21;2.00;99.90
19928;DHT22;10126;50.876;4.470;2023-01-19T00:14:22;1.90;99.90
19928;DHT22;10126;50.876;4.470;2023-01-19T00:16:23;2.00;99.90
19928;DHT22;10126;50.876;4.470;2023-01-19T00:18:24;2.00;99.90
19928;DHT22;10126;50.876;4.470;2023-01-19T00:20:25;2.00;99.90
19928;DHT22;10126;50.876;4.470;2023-01-19T00:22:26;2.00;99.90
19928;DHT22;10126;50.876;4.470;2023-01-19T00:24:27;1.90;99.90
19928;DHT22;10126;50.876;4.470;2023-01-19T00:26:27;2.00;99.90
19928;DHT22;10126;50.876;4.470;2023-01-19T00:28:28;2.00;99.90
19928;DHT22;10126;50.876;4.470;2023-01-19T00:30:28;2.00;99.90
19928;DHT22;10126;50.876;4.470;2023-01-19T00:32:29;2.10;99.90
19928;DHT22;10126;50.876;4.470;2023-01-19T00:34:31;2.10;99.90
19928;DHT22;10126;50.876;4.470;2023-01-19T00:36:38;2.20;99.90
19928;DHT22;10126;50.876;4.470;2023-01-19T00:38:39;2.20;99.90
19928;DHT22;10126;50.876;4.470;2023-01-19T00:40:40;2.20;99.90
19928;DHT22;10126;50.876;4.470;2023-01-19T00:42:40;2.40;99.90
19928;DHT22;10126;50.876;4.470;2023-01-19T00:44:43;2.60;99.90
19928;DHT22;10126;50.876;4.470;2023-01-19T00:46:44;2.50;99.90
19928;DHT22;10126;50.876;4.470;2023-01-19T00:48:44;2.50;99.90
19928;DHT22;10126;50.876;4.470;2023-01-19T00:50:46;2.50;99.90
19928;DHT22;10126;50.876;4.470;2023-01-19T00:52:48;2.50;99.90
19928;DHT22;10126;50.876;4.470;2023-01-19T00:54:49;2.40;99.90
19928;DHT22;10126;50.876;4.470;2023-01-19T00:56:50;2.30;99.90
19928;DHT22;10126;50.876;4.470;2023-01-19T00:58:50;2.30;99.90
19928;DHT22;10126;50.876;4.470;2023-01-19T01:00:52;2.30;99.90
19928;DHT22;10126;50.876;4.470;2023-01-19T01:02:53;2.30;99.90
19928;DHT22;10126;50.876;4.470;2023-01-19T01:04:54;2.20;99.90
19928;DHT22;10126;50.876;4.470;2023-01-19T01:06:56;2.30;99.90
19928;DHT22;10126;50.876;4.470;2023-01-19T01:08:56;2.30;99.90
19928;DHT22;10126;50.876;4.470;2023-01-19T01:10:57;2.10;99.90
19928;DHT22;10126;50.876;4.470;2023-01-19T01:12:58;2.10;99.90
19928;DHT22;10126;50.876;4.470;2023-01-19T01:14:58;2.00;99.90
19928;DHT22;10126;50.876;4.470;2023-01-19T01:16:59;2.00;99.90
19928;DHT22;10126;50.876;4.470;2023-01-19T01:19:00;2.00;99.90
19928;DHT22;10126;50.876;4.470;2023-01-19T01:21:02;2.00;99.90
19928;DHT22;10126;50.876;4.470;2023-01-19T01:23:03;1.90;99.90
19928;DHT22;10126;50.876;4.470;2023-01-19T01:25:04;1.90;99.90
19928;DHT22;10126;50.876;4.470;2023-01-19T01:27:05;2.00;99.90
19928;DHT22;10126;50.876;4.470;2023-01-19T01:29:05;2.00;99.90
19928;DHT22;10126;50.876;4.470;2023-01-19T01:31:07;1.90;99.90
19928;DHT22;10126;50.876;4.470;2023-01-19T01:33:08;1.90;99.90
19928;DHT22;10126;50.876;4.470;2023-01-19T01:35:11;2.00;99.90
19928;DHT22;10126;50.876;4.470;2023-01-19T01:37:12;2.00;99.90
19928;DHT22;10126;50.876;4.470;2023-01-19T01:39:12;1.90;99.90
19928;DHT22;10126;50.876;4.470;2023-01-19T01:41:13;1.90;99.90
19928;DHT22;10126;50.876;4.470;2023-01-19T01:43:16;1.90;99.90
19928;DHT22;10126;50.876;4.470;2023-01-19T01:45:34;1.80;99.90
19928;DHT22;10126;50.876;4.470;2023-01-19T01:47:46;1.90;99.90
19928;DHT22;10126;50.876;4.470;2023-01-19T01:49:54;1.90;99.90
19928;DHT22;10126;50.876;4.470;2023-01-19T01:51:55;1.90;99.90
19928;DHT22;10126;50.876;4.470;2023-01-19T01:54:20;1.90;99.90
19928;DHT22;10126;50.876;4.470;2023-01-19T01:57:08;1.80;99.90
19928;DHT22;10126;50.876;4.470;2023-01-19T01:58:50;1.80;99.90
19928;DHT22;10126;50.876;4.470;2023-01-19T02:00:50;1.80;99.90
19928;DHT22;10126;50.876;4.470;2023-01-19T02:03:10;1.80;99.90
19928;DHT22;10126;50.876;4.470;2023-01-19T02:05:26;1.80;99.90
19928;DHT22;10126;50.876;4.470;2023-01-19T02:10:03;1.70;99.90
19928;DHT22;10126;50.876;4.470;2023-01-19T02:12:22;1.70;99.90
19928;DHT22;10126;50.876;4.470;2023-01-19T02:14:42;1.70;99.90
19928;DHT22;10126;50.876;4.470;2023-01-19T02:16:43;1.60;99.90
19928;DHT22;10126;50.876;4.470;2023-01-19T02:18:45;1.60;99.90
19928;DHT22;10126;50.876;4.470;2023-01-19T02:23:38;1.60;99.90
19928;DHT22;10126;50.876;4.470;2023-01-19T02:25:40;1.60;99.90
19928;DHT22;10126;50.876;4.470;2023-01-19T02:27:41;1.60;99.90
19928;DHT22;10126;50.876;4.470;2023-01-19T02:29:42;1.60;99.90
19928;DHT22;10126;50.876;4.470;2023-01-19T02:31:43;1.70;99.90
19928;DHT22;10126;50.876;4.470;2023-01-19T02:33:44;1.60;99.90
19928;DHT22;10126;50.876;4.470;2023-01-19T02:35:46;1.70;99.90
19928;DHT22;10126;50.876;4.470;2023-01-19T02:37:47;1.70;99.90
19928;DHT22;10126;50.876;4.470;2023-01-19T02:39:51;1.80;99.90
19928;DHT22;10126;50.876;4.470;2023-01-19T02:41:55;1.80;99.90
19928;DHT22;10126;50.876;4.470;2023-01-19T02:44:00;1.80;99.90
19928;DHT22;10126;50.876;4.470;2023-01-19T02:46:02;1.80;99.90
19928;DHT22;10126;50.876;4.470;2023-01-19T02:48:03;2.00;99.90
19928;DHT22;10126;50.876;4.470;2023-01-19T02:52:47;1.90;99.90
19928;DHT22;10126;50.876;4.470;2023-01-19T02:55:16;1.90;99.90
19928;DHT22;10126;50.876;4.470;2023-01-19T02:57:52;2.00;99.90
19928;DHT22;10126;50.876;4.470;2023-01-19T03:00:21;2.00;99.90
19928;DHT22;10126;50.876;4.470;2023-01-19T03:02:34;1.90;99.90
19928;DHT22;10126;50.876;4.470;2023-01-19T03:07:12;1.90;99.90
19928;DHT22;10126;50.876;4.470;2023-01-19T03:09:38;1.90;99.90
19928;DHT22;10126;50.876;4.470;2023-01-19T03:11:50;2.00;99.90
19928;DHT22;10126;50.876;4.470;2023-01-19T03:14:00;1.90;99.90
19928;DHT22;10126;50.876;4.470;2023-01-19T03:18:24;1.80;99.90
19928;DHT22;10126;50.876;4.470;2023-01-19T03:20:26;1.80;99.90
19928;DHT22;10126;50.876;4.470;2023-01-19T03:22:28;1.80;99.90
19928;DHT22;10126;50.876;4.470;2023-01-19T03:24:32;2.00;99.90
19928;DHT22;10126;50.876;4.470;2023-01-19T03:26:39;2.00;99.90
19928;DHT22;10126;50.876;4.470;2023-01-19T03:28:41;2.10;99.90
19928;DHT22;10126;50.876;4.470;2023-01-19T03:30:46;2.20;99.90
19928;DHT22;10126;50.876;4.470;2023-01-19T03:32:59;2.20;99.90
19928;DHT22;10126;50.876;4.470;2023-01-19T03:35:05;2.30;99.90
19928;DHT22;10126;50.876;4.470;2023-01-19T03:37:09;2.30;99.90
19928;DHT22;10126;50.876;4.470;2023-01-19T03:39:13;2.50;99.90
19928;DHT22;10126;50.876;4.470;2023-01-19T03:41:18;2.50;99.90
19928;DHT22;10126;50.876;4.470;2023-01-19T03:43:22;2.60;99.90
19928;DHT22;10126;50.876;4.470;2023-01-19T03:45:24;2.70;99.90
19928;DHT22;10126;50.876;4.470;2023-01-19T03:47:24;2.60;99.90
19928;DHT22;10126;50.876;4.470;2023-01-19T03:49:25;2.60;99.90
19928;DHT22;10126;50.876;4.470;2023-01-19T03:51:26;2.50;99.90
19928;DHT22;10126;50.876;4.470;2023-01-19T03:53:27;2.50;99.90
19928;DHT22;10126;50.876;4.470;2023-01-19T03:55:28;2.50;99.90
19928;DHT22;10126;50.876;4.470;2023-01-19T03:57:29;2.50;99.90
19928;DHT22;10126;50.876;4.470;2023-01-19T03:59:30;2.60;99.90
19928;DHT22;10126;50.876;4.470;2023-01-19T04:01:30;2.70;99.90
19928;DHT22;10126;50.876;4.470;2023-01-19T04:03:31;2.50;99.90
19928;DHT22;10126;50.876;4.470;2023-01-19T04:05:32;2.40;99.90
19928;DHT22;10126;50.876;4.470;2023-01-19T04:07:32;2.30;99.90
19928;DHT22;10126;50.876;4.470;2023-01-19T04:09:33;2.30;99.90
19928;DHT22;10126;50.876;4.470;2023-01-19T04:11:34;2.20;99.90
19928;DHT22;10126;50.876;4.470;2023-01-19T04:13:34;2.20;99.90
19928;DHT22;10126;50.876;4.470;2023-01-19T04:15:35;2.10;99.90
19928;DHT22;10126;50.876;4.470;2023-01-19T04:17:36;2.10;99.90
19928;DHT22;10126;50.876;4.470;2023-01-19T04:19:37;2.10;99.90
19928;DHT22;10126;50.876;4.470;2023-01-19T04:21:38;2.10;99.90
19928;DHT22;10126;50.876;4.470;2023-01-19T04:23:39;2.20;99.90
19928;DHT22;10126;50.876;4.470;2023-01-19T04:25:39;2.20;99.90
19928;DHT22;10126;50.876;4.470;2023-01-19T04:27:40;2.20;99.90
19928;DHT22;10126;50.876;4.470;2023-01-19T04:29:43;2.10;99.90
19928;DHT22;10126;50.876;4.470;2023-01-19T04:31:44;2.00;99.90
19928;DHT22;10126;50.876;4.470;2023-01-19T04:33:44;2.00;99.90
19928;DHT22;10126;50.876;4.470;2023-01-19T04:35:46;2.00;99.90
19928;DHT22;10126;50.876;4.470;2023-01-19T04:37:47;2.00;99.90
19928;DHT22;10126;50.876;4.470;2023-01-19T04:39:47;1.90;99.90
19928;DHT22;10126;50.876;4.470;2023-01-19T04:41:48;1.90;99.90
19928;DHT22;10126;50.876;4.470;2023-01-19T04:43:49;1.90;99.90
19928;DHT22;10126;50.876;4.470;2023-01-19T04:45:50;2.00;99.90
19928;DHT22;10126;50.876;4.470;2023-01-19T04:47:50;2.00;99.90
19928;DHT22;10126;50.876;4.470;2023-01-19T04:49:51;2.00;99.90
19928;DHT22;10126;50.876;4.470;2023-01-19T04:51:53;2.10;99.90
19928;DHT22;10126;50.876;4.470;2023-01-19T04:53:54;2.10;99.90
19928;DHT22;10126;50.876;4.470;2023-01-19T04:55:54;2.10;99.90
19928;DHT22;10126;50.876;4.470;2023-01-19T04:57:55;2.10;99.90
19928;DHT22;10126;50.876;4.470;2023-01-19T04:59:57;1.90;99.90
19928;DHT22;10126;50.876;4.470;2023-01-19T05:01:57;1.90;99.90
19928;DHT22;10126;50.876;4.470;2023-01-19T05:03:58;1.80;99.90
19928;DHT22;10126;50.876;4.470;2023-01-19T05:05:59;1.70;99.90
19928;DHT22;10126;50.876;4.470;2023-01-19T05:08:00;1.70;99.90
19928;DHT22;10126;50.876;4.470;2023-01-19T05:10:00;1.60;99.90
19928;DHT22;10126;50.876;4.470;2023-01-19T05:12:01;1.50;99.90
19928;DHT22;10126;50.876;4.470;2023-01-19T05:14:02;1.50;99.90
19928;DHT22;10126;50.876;4.470;2023-01-19T05:16:03;1.40;99.90
19928;DHT22;10126;50.876;4.470;2023-01-19T05:18:06;1.50;99.90
19928;DHT22;10126;50.876;4.470;2023-01-19T05:20:09;1.40;99.90
19928;DHT22;10126;50.876;4.470;2023-01-19T05:22:10;1.40;99.90
19928;DHT22;10126;50.876;4.470;2023-01-19T05:24:11;1.40;99.90
19928;DHT22;10126;50.876;4.470;2023-01-19T05:26:11;1.50;99.90
19928;DHT22;10126;50.876;4.470;2023-01-19T05:28:12;1.50;99.90
19928;DHT22;10126;50.876;4.470;2023-01-19T05:30:14;1.50;99.90
19928;DHT22;10126;50.876;4.470;2023-01-19T05:32:15;1.40;99.90
19928;DHT22;10126;50.876;4.470;2023-01-19T05:34:16;1.60;99.90
19928;DHT22;10126;50.876;4.470;2023-01-19T05:36:17;1.50;99.90
19928;DHT22;10126;50.876;4.470;2023-01-19T05:38:18;1.50;99.90
19928;DHT22;10126;50.876;4.470;2023-01-19T05:40:19;1.50;99.90
19928;DHT22;10126;50.876;4.470;2023-01-19T05:42:20;1.50;99.90
19928;DHT22;10126;50.876;4.470;2023-01-19T05:44:21;1.60;99.90
19928;DHT22;10126;50.876;4.470;2023-01-19T05:46:22;1.60;99.90
19928;DHT22;10126;50.876;4.470;2023-01-19T05:48:23;1.60;99.90
19928;DHT22;10126;50.876;4.470;2023-01-19T05:50:24;1.70;99.90
19928;DHT22;10126;50.876;4.470;2023-01-19T05:52:25;1.70;99.90
19928;DHT22;10126;50.876;4.470;2023-01-19T05:54:26;1.60;99.90
19928;DHT22;10126;50.876;4.470;2023-01-19T05:56:26;1.60;99.90
19928;DHT22;10126;50.876;4.470;2023-01-19T05:58:28;1.60;99.90
19928;DHT22;10126;50.876;4.470;2023-01-19T06:00:28;1.50;99.90
19928;DHT22;10126;50.876;4.470;2023-01-19T06:02:29;1.60;99.90
19928;DHT22;10126;50.876;4.470;2023-01-19T06:04:30;1.40;99.90
19928;DHT22;10126;50.876;4.470;2023-01-19T06:06:30;1.50;99.90
19928;DHT22;10126;50.876;4.470;2023-01-19T06:08:31;1.60;99.90
19928;DHT22;10126;50.876;4.470;2023-01-19T06:10:32;1.60;99.90
19928;DHT22;10126;50.876;4.470;2023-01-19T06:12:32;1.60;99.90
19928;DHT22;10126;50.876;4.470;2023-01-19T06:14:34;1.50;99.90
19928;DHT22;10126;50.876;4.470;2023-01-19T06:16:36;1.50;99.90
19928;DHT22;10126;50.876;4.470;2023-01-19T06:18:37;1.50;99.90
19928;DHT22;10126;50.876;4.470;2023-01-19T06:20:37;1.50;99.90
19928;DHT22;10126;50.876;4.470;2023-01-19T06:22:40;1.50;99.90
19928;DHT22;10126;50.876;4.470;2023-01-19T06:24:41;1.60;99.90
19928;DHT22;10126;50.876;4.470;2023-01-19T06:26:42;1.40;99.90
19928;DHT22;10126;50.876;4.470;2023-01-19T06:28:43;1.50;99.90
19928;DHT22;10126;50.876;4.470;2023-01-19T06:30:50;1.60;99.90
19928;DHT22;10126;50.876;4.470;2023-01-19T06:32:52;1.70;99.90
19928;DHT22;10126;50.876;4.470;2023-01-19T06:34:53;1.70;99.90
19928;DHT22;10126;50.876;4.470;2023-01-19T06:36:55;1.70;99.90
19928;DHT22;10126;50.876;4.470;2023-01-19T06:38:58;1.60;99.90
19928;DHT22;10126;50.876;4.470;2023-01-19T06:41:02;1.60;99.90
19928;DHT22;10126;50.876;4.470;2023-01-19T06:43:04;1.60;99.90
19928;DHT22;10126;50.876;4.470;2023-01-19T06:45:05;1.60;99.90
19928;DHT22;10126;50.876;4.470;2023-01-19T06:47:06;1.50;99.90
19928;DHT22;10126;50.876;4.470;2023-01-19T06:49:07;1.60;99.90
19928;DHT22;10126;50.876;4.470;2023-01-19T06:51:08;1.60;99.90
19928;DHT22;10126;50.876;4.470;2023-01-19T06:53:08;1.70;99.90
19928;DHT22;10126;50.876;4.470;2023-01-19T06:55:10;1.80;99.90
19928;DHT22;10126;50.876;4.470;2023-01-19T06:57:12;1.90;99.90
19928;DHT22;10126;50.876;4.470;2023-01-19T06:59:13;1.90;99.90
19928;DHT22;10126;50.876;4.470;2023-01-19T07:01:14;1.90;99.90
19928;DHT22;10126;50.876;4.470;2023-01-19T07:03:19;1.90;99.90
19928;DHT22;10126;50.876;4.470;2023-01-19T07:05:19;2.00;99.90
19928;DHT22;10126;50.876;4.470;2023-01-19T07:07:21;2.00;99.90
19928;DHT22;10126;50.876;4.470;2023-01-19T07:09:22;2.00;99.90
19928;DHT22;10126;50.876;4.470;2023-01-19T07:11:24;2.00;99.90
19928;DHT22;10126;50.876;4.470;2023-01-19T07:13:24;1.90;99.90
19928;DHT22;10126;50.876;4.470;2023-01-19T07:15:25;2.00;99.90
19928;DHT22;10126;50.876;4.470;2023-01-19T07:17:26;2.00;99.90
19928;DHT22;10126;50.876;4.470;2023-01-19T07:19:26;2.00;99.90
19928;DHT22;10126;50.876;4.470;2023-01-19T07:21:27;2.00;99.90
19928;DHT22;10126;50.876;4.470;2023-01-19T07:23:27;2.00;99.90
19928;DHT22;10126;50.876;4.470;2023-01-19T07:25:31;2.00;99.90
19928;DHT22;10126;50.876;4.470;2023-01-19T07:27:32;2.10;99.90
19928;DHT22;10126;50.876;4.470;2023-01-19T07:29:32;2.10;99.90
19928;DHT22;10126;50.876;4.470;2023-01-19T07:31:33;2.00;99.90
19928;DHT22;10126;50.876;4.470;2023-01-19T07:33:34;2.00;99.90
19928;DHT22;10126;50.876;4.470;2023-01-19T07:35:35;2.10;99.90
19928;DHT22;10126;50.876;4.470;2023-01-19T07:37:35;1.90;99.90
19928;DHT22;10126;50.876;4.470;2023-01-19T07:39:36;1.80;99.90
19928;DHT22;10126;50.876;4.470;2023-01-19T07:41:37;1.90;99.90
19928;DHT22;10126;50.876;4.470;2023-01-19T07:43:38;1.90;99.90
19928;DHT22;10126;50.876;4.470;2023-01-19T07:45:39;1.80;99.90
19928;DHT22;10126;50.876;4.470;2023-01-19T07:47:42;1.80;99.90
19928;DHT22;10126;50.876;4.470;2023-01-19T07:49:43;1.90;99.90
19928;DHT22;10126;50.876;4.470;2023-01-19T07:51:44;1.80;99.90
19928;DHT22;10126;50.876;4.470;2023-01-19T07:53:44;1.90;99.90
19928;DHT22;10126;50.876;4.470;2023-01-19T07:55:45;1.90;99.90
19928;DHT22;10126;50.876;4.470;2023-01-19T07:57:50;1.90;99.90
19928;DHT22;10126;50.876;4.470;2023-01-19T07:59:50;1.80;99.90
19928;DHT22;10126;50.876;4.470;2023-01-19T08:01:51;1.90;99.90
19928;DHT22;10126;50.876;4.470;2023-01-19T08:03:53;1.80;99.90
19928;DHT22;10126;50.876;4.470;2023-01-19T08:05:54;1.90;99.90
19928;DHT22;10126;50.876;4.470;2023-01-19T08:07:56;1.90;99.90
19928;DHT22;10126;50.876;4.470;2023-01-19T08:09:57;1.90;99.90
19928;DHT22;10126;50.876;4.470;2023-01-19T08:11:58;2.00;99.90
19928;DHT22;10126;50.876;4.470;2023-01-19T08:13:58;2.00;99.90
19928;DHT22;10126;50.876;4.470;2023-01-19T08:16:00;1.90;99.90
19928;DHT22;10126;50.876;4.470;2023-01-19T08:18:02;2.00;99.90
19928;DHT22;10126;50.876;4.470;2023-01-19T08:20:09;2.10;99.90
19928;DHT22;10126;50.876;4.470;2023-01-19T08:22:10;2.20;99.90
19928;DHT22;10126;50.876;4.470;2023-01-19T08:24:17;2.40;99.90
19928;DHT22;10126;50.876;4.470;2023-01-19T08:26:21;2.60;99.90
19928;DHT22;10126;50.876;4.470;2023-01-19T08:28:26;2.70;99.90
19928;DHT22;10126;50.876;4.470;2023-01-19T08:30:27;2.60;99.90
19928;DHT22;10126;50.876;4.470;2023-01-19T08:32:28;2.70;99.90
19928;DHT22;10126;50.876;4.470;2023-01-19T08:34:28;2.60;99.90
19928;DHT22;10126;50.876;4.470;2023-01-19T08:36:30;2.80;99.90
19928;DHT22;10126;50.876;4.470;2023-01-19T08:38:31;2.70;99.90
19928;DHT22;10126;50.876;4.470;2023-01-19T08:40:34;2.80;99.90
19928;DHT22;10126;50.876;4.470;2023-01-19T08:42:35;2.60;99.90
19928;DHT22;10126;50.876;4.470;2023-01-19T08:44:35;2.50;99.90
19928;DHT22;10126;50.876;4.470;2023-01-19T08:46:36;2.50;99.90
19928;DHT22;10126;50.876;4.470;2023-01-19T08:48:37;2.60;99.90
19928;DHT22;10126;50.876;4.470;2023-01-19T08:50:37;2.60;99.90
19928;DHT22;10126;50.876;4.470;2023-01-19T08:52:38;2.60;99.90
19928;DHT22;10126;50.876;4.470;2023-01-19T08:54:39;2.70;99.90
19928;DHT22;10126;50.876;4.470;2023-01-19T08:56:39;2.70;99.90
19928;DHT22;10126;50.876;4.470;2023-01-19T08:58:41;2.80;99.90
19928;DHT22;10126;50.876;4.470;2023-01-19T09:00:45;2.60;99.90
19928;DHT22;10126;50.876;4.470;2023-01-19T09:02:46;2.70;99.90
19928;DHT22;10126;50.876;4.470;2023-01-19T09:04:47;2.70;99.90
19928;DHT22;10126;50.876;4.470;2023-01-19T09:06:48;2.90;99.90
19928;DHT22;10126;50.876;4.470;2023-01-19T09:08:49;2.90;99.90
19928;DHT22;10126;50.876;4.470;2023-01-19T09:10:50;2.80;99.90
19928;DHT22;10126;50.876;4.470;2023-01-19T09:12:50;2.80;99.90
19928;DHT22;10126;50.876;4.470;2023-01-19T09:14:51;2.70;99.90
19928;DHT22;10126;50.876;4.470;2023-01-19T09:16:52;2.70;99.90
19928;DHT22;10126;50.876;4.470;2023-01-19T09:18:52;2.80;99.90
19928;DHT22;10126;50.876;4.470;2023-01-19T09:20:56;3.00;99.90
19928;DHT22;10126;50.876;4.470;2023-01-19T09:22:57;3.00;99.90
19928;DHT22;10126;50.876;4.470;2023-01-19T09:24:58;3.00;99.90
19928;DHT22;10126;50.876;4.470;2023-01-19T09:26:59;2.90;99.90
19928;DHT22;10126;50.876;4.470;2023-01-19T09:29:00;3.00;99.90
19928;DHT22;10126;50.876;4.470;2023-01-19T09:31:07;3.00;99.90
19928;DHT22;10126;50.876;4.470;2023-01-19T09:33:10;3.00;99.90
19928;DHT22;10126;50.876;4.470;2023-01-19T09:35:11;3.30;99.90
19928;DHT22;10126;50.876;4.470;2023-01-19T09:37:13;3.20;99.90
19928;DHT22;10126;50.876;4.470;2023-01-19T09:39:15;3.20;99.90
19928;DHT22;10126;50.876;4.470;2023-01-19T09:41:20;3.20;99.90
19928;DHT22;10126;50.876;4.470;2023-01-19T09:47:33;3.30;99.90
19928;DHT22;10126;50.876;4.470;2023-01-19T09:49:39;3.20;99.90
19928;DHT22;10126;50.876;4.470;2023-01-19T09:51:44;3.30;99.90
19928;DHT22;10126;50.876;4.470;2023-01-19T09:56:07;3.40;99.90
19928;DHT22;10126;50.876;4.470;2023-01-19T09:58:15;3.40;99.90
19928;DHT22;10126;50.876;4.470;2023-01-19T10:00:18;3.50;99.90
19928;DHT22;10126;50.876;4.470;2023-01-19T10:06:39;3.70;99.90
19928;DHT22;10126;50.876;4.470;2023-01-19T10:10:53;3.90;99.90
19928;DHT22;10126;50.876;4.470;2023-01-19T10:13:17;3.70;99.90
19928;DHT22;10126;50.876;4.470;2023-01-19T10:15:22;3.60;99.90
19928;DHT22;10126;50.876;4.470;2023-01-19T10:19:50;3.70;99.90
19928;DHT22;10126;50.876;4.470;2023-01-19T10:21:54;3.70;99.90
19928;DHT22;10126;50.876;4.470;2023-01-19T10:23:59;3.70;99.90
19928;DHT22;10126;50.876;4.470;2023-01-19T10:26:07;3.70;99.90
19928;DHT22;10126;50.876;4.470;2023-01-19T10:28:10;3.80;99.90
19928;DHT22;10126;50.876;4.470;2023-01-19T10:30:20;3.80;99.90
19928;DHT22;10126;50.876;4.470;2023-01-19T10:32:29;3.70;99.90
19928;DHT22;10126;50.876;4.470;2023-01-19T10:34:31;3.70;99.90
19928;DHT22;10126;50.876;4.470;2023-01-19T10:36:36;3.80;99.90
19928;DHT22;10126;50.876;4.470;2023-01-19T10:38:37;4.00;99.90
19928;DHT22;10126;50.876;4.470;2023-01-19T10:40:57;3.80;99.90
19928;DHT22;10126;50.876;4.470;2023-01-19T10:42:59;3.70;99.90
19928;DHT22;10126;50.876;4.470;2023-01-19T10:45:00;3.80;99.90
19928;DHT22;10126;50.876;4.470;2023-01-19T10:47:00;3.70;99.90
19928;DHT22;10126;50.876;4.470;2023-01-19T10:49:02;3.60;99.90
19928;DHT22;10126;50.876;4.470;2023-01-19T10:51:04;3.70;99.90
19928;DHT22;10126;50.876;4.470;2023-01-19T10:53:05;3.60;99.90
19928;DHT22;10126;50.876;4.470;2023-01-19T10:55:30;3.60;99.90
19928;DHT22;10126;50.876;4.470;2023-01-19T10:57:34;3.50;99.90
19928;DHT22;10126;50.876;4.470;2023-01-19T11:02:22;3.70;99.90
19928;DHT22;10126;50.876;4.470;2023-01-19T11:04:27;3.90;99.90
19928;DHT22;10126;50.876;4.470;2023-01-19T11:06:29;4.20;99.90
19928;DHT22;10126;50.876;4.470;2023-01-19T11:08:30;4.00;99.90
19928;DHT22;10126;50.876;4.470;2023-01-19T11:10:31;4.00;99.90
19928;DHT22;10126;50.876;4.470;2023-01-19T11:12:32;3.90;99.90
19928;DHT22;10126;50.876;4.470;2023-01-19T11:14:33;3.90;99.90
19928;DHT22;10126;50.876;4.470;2023-01-19T11:16:34;3.90;99.90
19928;DHT22;10126;50.876;4.470;2023-01-19T11:18:38;4.00;99.90
19928;DHT22;10126;50.876;4.470;2023-01-19T11:20:50;4.10;99.90
19928;DHT22;10126;50.876;4.470;2023-01-19T11:23:25;4.10;99.90
19928;DHT22;10126;50.876;4.470;2023-01-19T11:25:29;4.10;99.90
19928;DHT22;10126;50.876;4.470;2023-01-19T11:27:33;4.00;99.90
19928;DHT22;10126;50.876;4.470;2023-01-19T11:29:35;4.10;99.90
19928;DHT22;10126;50.876;4.470;2023-01-19T11:31:36;4.20;99.90
19928;DHT22;10126;50.876;4.470;2023-01-19T11:33:42;4.20;99.90
19928;DHT22;10126;50.876;4.470;2023-01-19T11:35:43;4.20;99.90
19928;DHT22;10126;50.876;4.470;2023-01-19T11:37:43;4.30;99.90
19928;DHT22;10126;50.876;4.470;2023-01-19T11:39:48;4.30;99.90
19928;DHT22;10126;50.876;4.470;2023-01-19T11:41:53;4.30;99.90
19928;DHT22;10126;50.876;4.470;2023-01-19T11:44:04;4.30;99.90
19928;DHT22;10126;50.876;4.470;2023-01-19T11:46:11;4.30;99.90
19928;DHT22;10126;50.876;4.470;2023-01-19T11:48:24;4.40;99.90
19928;DHT22;10126;50.876;4.470;2023-01-19T11:50:34;4.60;99.90
19928;DHT22;10126;50.876;4.470;2023-01-19T11:52:48;4.50;99.90
19928;DHT22;10126;50.876;4.470;2023-01-19T11:55:06;4.50;99.90
19928;DHT22;10126;50.876;4.470;2023-01-19T11:57:15;4.60;99.90
19928;DHT22;10126;50.876;4.470;2023-01-19T11:59:17;4.70;99.90
19928;DHT22;10126;50.876;4.470;2023-01-19T12:01:33;4.90;99.90
19928;DHT22;10126;50.876;4.470;2023-01-19T12:05:45;4.90;99.90
19928;DHT22;10126;50.876;4.470;2023-01-19T12:07:47;4.70;99.90
19928;DHT22;10126;50.876;4.470;2023-01-19T12:09:53;4.80;99.90
19928;DHT22;10126;50.876;4.470;2023-01-19T12:12:05;5.00;99.90
19928;DHT22;10126;50.876;4.470;2023-01-19T12:14:20;5.00;99.90
19928;DHT22;10126;50.876;4.470;2023-01-19T12:16:27;4.80;99.90
19928;DHT22;10126;50.876;4.470;2023-01-19T12:18:34;5.00;99.90
19928;DHT22;10126;50.876;4.470;2023-01-19T12:20:41;5.10;99.90
19928;DHT22;10126;50.876;4.470;2023-01-19T12:22:49;5.10;99.90
19928;DHT22;10126;50.876;4.470;2023-01-19T12:27:12;5.30;99.90
19928;DHT22;10126;50.876;4.470;2023-01-19T12:29:20;5.30;99.90
19928;DHT22;10126;50.876;4.470;2023-01-19T12:31:22;5.40;99.90
19928;DHT22;10126;50.876;4.470;2023-01-19T12:33:37;5.30;99.90
19928;DHT22;10126;50.876;4.470;2023-01-19T12:36:07;5.20;99.90
19928;DHT22;10126;50.876;4.470;2023-01-19T12:40:46;5.00;99.90
19928;DHT22;10126;50.876;4.470;2023-01-19T12:42:59;5.00;99.90
19928;DHT22;10126;50.876;4.470;2023-01-19T12:45:24;4.80;99.90
19928;DHT22;10126;50.876;4.470;2023-01-19T12:47:28;4.90;99.90
19928;DHT22;10126;50.876;4.470;2023-01-19T12:51:38;5.10;99.90
19928;DHT22;10126;50.876;4.470;2023-01-19T12:53:38;5.20;99.90
19928;DHT22;10126;50.876;4.470;2023-01-19T12:55:39;5.40;99.90
19928;DHT22;10126;50.876;4.470;2023-01-19T12:57:58;5.40;99.90
19928;DHT22;10126;50.876;4.470;2023-01-19T13:00:48;5.10;99.90
19928;DHT22;10126;50.876;4.470;2023-01-19T13:04:33;4.90;99.90
19928;DHT22;10126;50.876;4.470;2023-01-19T13:11:25;4.60;99.90
19928;DHT22;10126;50.876;4.470;2023-01-19T13:13:33;4.50;99.90
19928;DHT22;10126;50.876;4.470;2023-01-19T13:15:38;4.50;99.90
19928;DHT22;10126;50.876;4.470;2023-01-19T13:17:59;4.40;99.90
19928;DHT22;10126;50.876;4.470;2023-01-19T13:20:26;4.50;99.90
19928;DHT22;10126;50.876;4.470;2023-01-19T13:25:28;4.50;99.90
19928;DHT22;10126;50.876;4.470;2023-01-19T13:27:29;4.80;99.90
19928;DHT22;10126;50.876;4.470;2023-01-19T13:29:33;4.90;99.90
19928;DHT22;10126;50.876;4.470;2023-01-19T13:31:38;5.10;99.90
19928;DHT22;10126;50.876;4.470;2023-01-19T13:33:54;5.20;99.90
19928;DHT22;10126;50.876;4.470;2023-01-19T13:35:57;5.10;99.90
19928;DHT22;10126;50.876;4.470;2023-01-19T13:37:58;5.30;99.90
19928;DHT22;10126;50.876;4.470;2023-01-19T13:39:59;5.30;99.90
19928;DHT22;10126;50.876;4.470;2023-01-19T13:42:04;5.40;99.90
19928;DHT22;10126;50.876;4.470;2023-01-19T13:44:28;5.40;99.90
19928;DHT22;10126;50.876;4.470;2023-01-19T13:46:30;5.30;99.90
19928;DHT22;10126;50.876;4.470;2023-01-19T13:48:31;5.20;99.90
19928;DHT22;10126;50.876;4.470;2023-01-19T13:50:35;5.30;99.90
19928;DHT22;10126;50.876;4.470;2023-01-19T13:52:42;5.40;99.90
19928;DHT22;10126;50.876;4.470;2023-01-19T13:54:56;5.50;99.90
19928;DHT22;10126;50.876;4.470;2023-01-19T13:56:57;5.60;99.90
19928;DHT22;10126;50.876;4.470;2023-01-19T13:59:06;5.50;99.90
19928;DHT22;10126;50.876;4.470;2023-01-19T14:01:20;5.40;99.90
19928;DHT22;10126;50.876;4.470;2023-01-19T14:03:23;5.30;99.90